Accueil
METAR-TAF:

METAR-TAF

Aéroports :

Cherbourg, France

Aéroport de Cherbourg - Maupertus

latitude: 49-39N, longitude: 001-28W, altitude: 138 m

Observation

Le bulletin a été fait il y a 16 minutes, à 21:30 UTC
Vent 1 kt de nord
Température 5°C
Humidité 93%
Pression 1023 hPa
Visibilité 10 km ou plus
pas de nuages en-dessous de 1500 mètres et pas de cumulonimbus.

METAR: LFRC 232130Z AUTO 01001KT CAVOK 05/04 Q1023

Heure: 23:46 (21:46 UTC)

Prévision

Le bulletin a été fait il y a 7 heures et 46 minutes, à 14:00 UTC
Prévision valable du 23 à 15 UTC au 23 à 24 UTC
Vent 8 kt de nord
Visibilité 10 km ou plus
pas de nuages en-dessous de 1500 mètres et pas de cumulonimbus.
Evoluant progressivement
du 23 à 19 UTC au 23 à 21 UTC
Vent 3 kt de direction variable
Probabilité 30% :
Temporairement
du 23 à 22 UTC au 23 à 24 UTC
Visibilité: 3000 m
brume

TAF: LFRC 231400Z 2315/2324 35008KT CAVOK BECMG 2319/2321 VRB03KT PROB30 TEMPO 2322/2324 3000 BR

Observations et prévisions météorologiques de plus de 4000 aéroports (messages METAR et TAF).

Les stations disponibles sont représentées par des disques jaunes et rouges sur la carte.

Passer la souris dessus pour voir le nom de la station.

Cliquer dessus pour voir les observations et prévisions météorologiques.

Pour changer de carte: cliquez sur les boutons verts avec une croix noire pour zoomer, sur le bouton vert avec un tiret pour effectuer un zoom arrière, ou sur les flèches vertes pour les cartes adjacentes.


METAR-TAF: